sensor_id;sensor_type;location;lat;lon;timestamp;P1;durP1;ratioP1;P2;durP2;ratioP2
28245;SDS011;15510;52.512;13.300;2023-11-21T00:00:04;4.50;;;3.70;;
28245;SDS011;15510;52.512;13.300;2023-11-21T00:02:38;5.77;;;4.50;;
28245;SDS011;15510;52.512;13.300;2023-11-21T00:05:07;9.43;;;4.60;;
28245;SDS011;15510;52.512;13.300;2023-11-21T00:07:35;7.80;;;5.70;;
28245;SDS011;15510;52.512;13.300;2023-11-21T00:10:01;13.10;;;5.93;;
28245;SDS011;15510;52.512;13.300;2023-11-21T00:12:31;12.17;;;6.77;;
28245;SDS011;15510;52.512;13.300;2023-11-21T00:14:58;11.93;;;7.27;;
28245;SDS011;15510;52.512;13.300;2023-11-21T00:17:27;13.30;;;7.77;;
28245;SDS011;15510;52.512;13.300;2023-11-21T00:19:56;12.40;;;8.40;;
28245;SDS011;15510;52.512;13.300;2023-11-21T00:22:22;15.83;;;8.43;;
28245;SDS011;15510;52.512;13.300;2023-11-21T00:24:53;15.77;;;9.43;;
28245;SDS011;15510;52.512;13.300;2023-11-21T00:27:19;15.10;;;9.33;;
28245;SDS011;15510;52.512;13.300;2023-11-21T00:29:48;14.57;;;9.20;;
28245;SDS011;15510;52.512;13.300;2023-11-21T00:32:14;18.80;;;9.23;;
28245;SDS011;15510;52.512;13.300;2023-11-21T00:34:40;16.20;;;9.33;;
28245;SDS011;15510;52.512;13.300;2023-11-21T00:37:08;14.77;;;8.53;;
28245;SDS011;15510;52.512;13.300;2023-11-21T00:39:37;20.93;;;8.93;;
28245;SDS011;15510;52.512;13.300;2023-11-21T00:42:03;26.63;;;11.17;;
28245;SDS011;15510;52.512;13.300;2023-11-21T00:44:39;22.73;;;9.80;;
28245;SDS011;15510;52.512;13.300;2023-11-21T00:47:05;23.23;;;10.93;;
28245;SDS011;15510;52.512;13.300;2023-11-21T00:49:31;21.20;;;11.03;;
28245;SDS011;15510;52.512;13.300;2023-11-21T00:52:00;28.33;;;11.50;;
28245;SDS011;15510;52.512;13.300;2023-11-21T00:54:29;30.13;;;11.73;;
28245;SDS011;15510;52.512;13.300;2023-11-21T00:56:55;26.93;;;11.83;;
28245;SDS011;15510;52.512;13.300;2023-11-21T00:59:21;27.80;;;13.03;;
28245;SDS011;15510;52.512;13.300;2023-11-21T01:01:53;28.23;;;13.77;;
28245;SDS011;15510;52.512;13.300;2023-11-21T01:04:19;28.00;;;12.97;;
28245;SDS011;15510;52.512;13.300;2023-11-21T01:06:53;29.83;;;13.97;;
28245;SDS011;15510;52.512;13.300;2023-11-21T01:09:19;32.40;;;14.10;;
28245;SDS011;15510;52.512;13.300;2023-11-21T01:11:45;32.97;;;14.90;;
28245;SDS011;15510;52.512;13.300;2023-11-21T01:14:18;35.00;;;14.10;;
28245;SDS011;15510;52.512;13.300;2023-11-21T01:16:52;34.53;;;14.37;;
28245;SDS011;15510;52.512;13.300;2023-11-21T01:19:18;31.07;;;14.07;;
28245;SDS011;15510;52.512;13.300;2023-11-21T01:21:47;28.40;;;14.00;;
28245;SDS011;15510;52.512;13.300;2023-11-21T01:24:16;29.00;;;13.87;;
28245;SDS011;15510;52.512;13.300;2023-11-21T01:26:45;26.00;;;11.70;;
28245;SDS011;15510;52.512;13.300;2023-11-21T01:29:12;31.20;;;13.33;;
28245;SDS011;15510;52.512;13.300;2023-11-21T01:31:38;26.10;;;12.20;;
28245;SDS011;15510;52.512;13.300;2023-11-21T01:34:08;22.13;;;11.03;;
28245;SDS011;15510;52.512;13.300;2023-11-21T01:36:36;24.77;;;10.70;;
28245;SDS011;15510;52.512;13.300;2023-11-21T01:39:02;22.63;;;10.83;;
28245;SDS011;15510;52.512;13.300;2023-11-21T01:41:33;22.50;;;10.40;;
28245;SDS011;15510;52.512;13.300;2023-11-21T01:44:01;18.03;;;9.97;;
28245;SDS011;15510;52.512;13.300;2023-11-21T01:46:33;22.00;;;9.77;;
28245;SDS011;15510;52.512;13.300;2023-11-21T01:49:02;19.03;;;9.93;;
28245;SDS011;15510;52.512;13.300;2023-11-21T01:51:29;25.33;;;10.20;;
28245;SDS011;15510;52.512;13.300;2023-11-21T01:53:56;21.20;;;9.70;;
28245;SDS011;15510;52.512;13.300;2023-11-21T01:56:22;23.83;;;11.10;;
28245;SDS011;15510;52.512;13.300;2023-11-21T01:58:51;22.60;;;9.47;;
28245;SDS011;15510;52.512;13.300;2023-11-21T02:01:17;29.33;;;11.63;;
28245;SDS011;15510;52.512;13.300;2023-11-21T02:03:44;20.33;;;9.57;;
28245;SDS011;15510;52.512;13.300;2023-11-21T02:06:10;24.43;;;10.43;;
28245;SDS011;15510;52.512;13.300;2023-11-21T02:08:35;23.93;;;10.40;;
28245;SDS011;15510;52.512;13.300;2023-11-21T02:11:14;21.47;;;10.50;;
28245;SDS011;15510;52.512;13.300;2023-11-21T02:13:39;16.07;;;8.63;;
28245;SDS011;15510;52.512;13.300;2023-11-21T02:16:09;17.07;;;7.77;;
28245;SDS011;15510;52.512;13.300;2023-11-21T02:18:38;18.03;;;8.13;;
28245;SDS011;15510;52.512;13.300;2023-11-21T02:21:05;15.03;;;7.50;;
28245;SDS011;15510;52.512;13.300;2023-11-21T02:23:31;11.73;;;6.33;;
28245;SDS011;15510;52.512;13.300;2023-11-21T02:25:57;12.10;;;7.07;;
28245;SDS011;15510;52.512;13.300;2023-11-21T02:28:23;9.30;;;5.50;;
28245;SDS011;15510;52.512;13.300;2023-11-21T02:30:52;10.10;;;5.83;;
28245;SDS011;15510;52.512;13.300;2023-11-21T02:33:21;10.20;;;5.50;;
28245;SDS011;15510;52.512;13.300;2023-11-21T02:35:50;11.60;;;5.57;;
28245;SDS011;15510;52.512;13.300;2023-11-21T02:38:20;6.60;;;4.97;;
28245;SDS011;15510;52.512;13.300;2023-11-21T02:40:49;9.57;;;5.37;;
28245;SDS011;15510;52.512;13.300;2023-11-21T02:43:15;8.43;;;5.60;;
28245;SDS011;15510;52.512;13.300;2023-11-21T02:45:41;11.97;;;6.20;;
28245;SDS011;15510;52.512;13.300;2023-11-21T02:48:12;9.73;;;5.37;;
28245;SDS011;15510;52.512;13.300;2023-11-21T02:50:38;9.63;;;6.57;;
28245;SDS011;15510;52.512;13.300;2023-11-21T02:53:04;8.83;;;6.43;;
28245;SDS011;15510;52.512;13.300;2023-11-21T02:55:33;11.93;;;6.87;;
28245;SDS011;15510;52.512;13.300;2023-11-21T02:58:04;8.87;;;6.43;;
28245;SDS011;15510;52.512;13.300;2023-11-21T03:00:34;9.53;;;7.10;;
28245;SDS011;15510;52.512;13.300;2023-11-21T03:03:10;9.70;;;6.73;;
28245;SDS011;15510;52.512;13.300;2023-11-21T03:05:36;10.23;;;6.60;;
28245;SDS011;15510;52.512;13.300;2023-11-21T03:08:02;10.40;;;7.00;;
28245;SDS011;15510;52.512;13.300;2023-11-21T03:10:28;7.50;;;5.97;;
28245;SDS011;15510;52.512;13.300;2023-11-21T03:12:54;11.03;;;6.77;;
28245;SDS011;15510;52.512;13.300;2023-11-21T03:15:20;9.37;;;6.47;;
28245;SDS011;15510;52.512;13.300;2023-11-21T03:17:46;10.60;;;7.03;;
28245;SDS011;15510;52.512;13.300;2023-11-21T03:20:17;7.97;;;6.23;;
28245;SDS011;15510;52.512;13.300;2023-11-21T03:22:43;10.30;;;6.43;;
28245;SDS011;15510;52.512;13.300;2023-11-21T03:25:09;9.80;;;5.57;;
28245;SDS011;15510;52.512;13.300;2023-11-21T03:27:36;11.33;;;5.77;;
28245;SDS011;15510;52.512;13.300;2023-11-21T03:30:03;5.93;;;5.30;;
28245;SDS011;15510;52.512;13.300;2023-11-21T03:32:33;7.53;;;5.80;;
28245;SDS011;15510;52.512;13.300;2023-11-21T03:34:59;6.93;;;5.67;;
28245;SDS011;15510;52.512;13.300;2023-11-21T03:37:25;7.73;;;5.70;;
28245;SDS011;15510;52.512;13.300;2023-11-21T03:40:00;8.90;;;6.20;;
28245;SDS011;15510;52.512;13.300;2023-11-21T03:42:29;10.10;;;6.23;;
28245;SDS011;15510;52.512;13.300;2023-11-21T03:44:55;8.03;;;6.17;;
28245;SDS011;15510;52.512;13.300;2023-11-21T03:47:21;8.10;;;6.53;;
28245;SDS011;15510;52.512;13.300;2023-11-21T03:49:47;7.63;;;6.07;;
28245;SDS011;15510;52.512;13.300;2023-11-21T03:52:16;9.27;;;6.27;;
28245;SDS011;15510;52.512;13.300;2023-11-21T03:54:42;8.60;;;6.00;;
28245;SDS011;15510;52.512;13.300;2023-11-21T03:57:08;9.40;;;6.53;;
28245;SDS011;15510;52.512;13.300;2023-11-21T03:59:35;10.47;;;6.60;;
28245;SDS011;15510;52.512;13.300;2023-11-21T04:02:01;10.73;;;7.10;;
28245;SDS011;15510;52.512;13.300;2023-11-21T04:04:27;12.47;;;7.77;;
28245;SDS011;15510;52.512;13.300;2023-11-21T04:06:56;11.47;;;7.13;;
28245;SDS011;15510;52.512;13.300;2023-11-21T04:09:21;9.97;;;7.53;;
28245;SDS011;15510;52.512;13.300;2023-11-21T04:11:51;8.73;;;6.43;;
28245;SDS011;15510;52.512;13.300;2023-11-21T04:14:17;11.40;;;7.30;;
28245;SDS011;15510;52.512;13.300;2023-11-21T04:16:43;9.47;;;7.10;;
28245;SDS011;15510;52.512;13.300;2023-11-21T04:19:11;10.47;;;7.47;;
28245;SDS011;15510;52.512;13.300;2023-11-21T04:21:40;9.37;;;6.63;;
28245;SDS011;15510;52.512;13.300;2023-11-21T04:24:07;11.00;;;7.47;;
28245;SDS011;15510;52.512;13.300;2023-11-21T04:26:35;10.40;;;7.00;;
28245;SDS011;15510;52.512;13.300;2023-11-21T04:29:01;8.20;;;6.57;;
28245;SDS011;15510;52.512;13.300;2023-11-21T04:31:27;9.80;;;7.30;;
28245;SDS011;15510;52.512;13.300;2023-11-21T04:33:53;9.70;;;6.83;;
28245;SDS011;15510;52.512;13.300;2023-11-21T04:36:19;14.43;;;7.73;;
28245;SDS011;15510;52.512;13.300;2023-11-21T04:38:45;12.23;;;7.20;;
28245;SDS011;15510;52.512;13.300;2023-11-21T04:41:11;9.57;;;6.33;;
28245;SDS011;15510;52.512;13.300;2023-11-21T04:43:37;9.83;;;7.23;;
28245;SDS011;15510;52.512;13.300;2023-11-21T04:46:03;9.80;;;6.67;;
28245;SDS011;15510;52.512;13.300;2023-11-21T04:48:31;9.60;;;6.77;;
28245;SDS011;15510;52.512;13.300;2023-11-21T04:50:56;9.57;;;6.77;;
28245;SDS011;15510;52.512;13.300;2023-11-21T04:53:25;11.23;;;6.30;;
28245;SDS011;15510;52.512;13.300;2023-11-21T04:55:56;8.47;;;6.23;;
28245;SDS011;15510;52.512;13.300;2023-11-21T04:58:22;9.57;;;6.30;;
28245;SDS011;15510;52.512;13.300;2023-11-21T05:00:48;8.43;;;6.20;;
28245;SDS011;15510;52.512;13.300;2023-11-21T05:03:14;8.63;;;6.17;;
28245;SDS011;15510;52.512;13.300;2023-11-21T05:05:40;7.80;;;5.60;;
28245;SDS011;15510;52.512;13.300;2023-11-21T05:08:06;7.23;;;5.47;;
28245;SDS011;15510;52.512;13.300;2023-11-21T05:10:36;7.20;;;5.10;;
28245;SDS011;15510;52.512;13.300;2023-11-21T05:13:04;8.23;;;5.60;;
28245;SDS011;15510;52.512;13.300;2023-11-21T05:15:34;8.63;;;5.63;;
28245;SDS011;15510;52.512;13.300;2023-11-21T05:18:01;9.27;;;5.50;;
28245;SDS011;15510;52.512;13.300;2023-11-21T05:20:27;6.90;;;5.53;;
28245;SDS011;15510;52.512;13.300;2023-11-21T05:22:56;7.20;;;5.73;;
28245;SDS011;15510;52.512;13.300;2023-11-21T05:25:22;8.53;;;5.17;;
28245;SDS011;15510;52.512;13.300;2023-11-21T05:27:48;7.07;;;5.30;;
28245;SDS011;15510;52.512;13.300;2023-11-21T05:30:14;8.33;;;5.47;;
28245;SDS011;15510;52.512;13.300;2023-11-21T05:32:40;7.63;;;5.37;;
28245;SDS011;15510;52.512;13.300;2023-11-21T05:35:11;7.17;;;5.37;;
28245;SDS011;15510;52.512;13.300;2023-11-21T05:37:41;8.10;;;5.33;;
28245;SDS011;15510;52.512;13.300;2023-11-21T05:40:07;8.80;;;5.47;;
28245;SDS011;15510;52.512;13.300;2023-11-21T05:42:35;9.50;;;6.50;;
28245;SDS011;15510;52.512;13.300;2023-11-21T05:45:06;8.67;;;6.03;;
28245;SDS011;15510;52.512;13.300;2023-11-21T05:47:36;8.63;;;6.30;;
28245;SDS011;15510;52.512;13.300;2023-11-21T05:50:06;8.80;;;6.37;;
28245;SDS011;15510;52.512;13.300;2023-11-21T05:52:45;8.43;;;6.30;;
28245;SDS011;15510;52.512;13.300;2023-11-21T05:55:15;8.77;;;6.30;;
28245;SDS011;15510;52.512;13.300;2023-11-21T05:57:49;6.57;;;4.90;;
28245;SDS011;15510;52.512;13.300;2023-11-21T06:00:18;7.43;;;5.50;;
28245;SDS011;15510;52.512;13.300;2023-11-21T06:02:51;8.97;;;5.87;;
28245;SDS011;15510;52.512;13.300;2023-11-21T06:05:23;8.27;;;5.97;;
28245;SDS011;15510;52.512;13.300;2023-11-21T06:07:54;7.57;;;6.00;;
28245;SDS011;15510;52.512;13.300;2023-11-21T06:10:41;7.23;;;5.83;;
28245;SDS011;15510;52.512;13.300;2023-11-21T06:13:06;6.77;;;4.77;;
28245;SDS011;15510;52.512;13.300;2023-11-21T06:15:32;7.67;;;5.20;;
28245;SDS011;15510;52.512;13.300;2023-11-21T06:18:01;5.20;;;4.20;;
28245;SDS011;15510;52.512;13.300;2023-11-21T06:20:27;8.37;;;4.77;;
28245;SDS011;15510;52.512;13.300;2023-11-21T06:22:53;7.40;;;4.77;;
28245;SDS011;15510;52.512;13.300;2023-11-21T06:25:19;5.53;;;4.57;;
28245;SDS011;15510;52.512;13.300;2023-11-21T06:27:48;6.17;;;4.47;;
28245;SDS011;15510;52.512;13.300;2023-11-21T06:30:15;5.50;;;4.57;;
28245;SDS011;15510;52.512;13.300;2023-11-21T06:32:41;5.20;;;4.10;;
28245;SDS011;15510;52.512;13.300;2023-11-21T06:35:11;6.00;;;4.50;;
28245;SDS011;15510;52.512;13.300;2023-11-21T06:37:38;4.77;;;3.67;;
28245;SDS011;15510;52.512;13.300;2023-11-21T06:40:20;5.70;;;4.70;;
28245;SDS011;15510;52.512;13.300;2023-11-21T06:42:46;6.13;;;4.40;;
28245;SDS011;15510;52.512;13.300;2023-11-21T06:45:12;5.23;;;4.20;;
28245;SDS011;15510;52.512;13.300;2023-11-21T06:47:42;6.67;;;4.77;;
28245;SDS011;15510;52.512;13.300;2023-11-21T06:50:08;7.63;;;4.40;;
28245;SDS011;15510;52.512;13.300;2023-11-21T06:52:34;4.33;;;3.90;;
28245;SDS011;15510;52.512;13.300;2023-11-21T06:55:03;7.37;;;3.87;;
28245;SDS011;15510;52.512;13.300;2023-11-21T06:57:32;5.77;;;4.00;;
28245;SDS011;15510;52.512;13.300;2023-11-21T07:00:04;5.17;;;3.97;;
28245;SDS011;15510;52.512;13.300;2023-11-21T07:02:31;6.77;;;4.80;;
28245;SDS011;15510;52.512;13.300;2023-11-21T07:04:57;5.77;;;4.37;;
28245;SDS011;15510;52.512;13.300;2023-11-21T07:07:23;4.73;;;3.77;;
28245;SDS011;15510;52.512;13.300;2023-11-21T07:09:48;6.40;;;4.40;;
28245;SDS011;15510;52.512;13.300;2023-11-21T07:12:14;5.07;;;3.67;;
28245;SDS011;15510;52.512;13.300;2023-11-21T07:14:40;4.73;;;4.10;;
28245;SDS011;15510;52.512;13.300;2023-11-21T07:17:08;4.63;;;3.67;;
28245;SDS011;15510;52.512;13.300;2023-11-21T07:19:38;6.77;;;4.10;;
28245;SDS011;15510;52.512;13.300;2023-11-21T07:22:03;5.87;;;3.93;;
28245;SDS011;15510;52.512;13.300;2023-11-21T07:24:31;4.47;;;3.37;;
28245;SDS011;15510;52.512;13.300;2023-11-21T07:27:00;3.87;;;3.47;;
28245;SDS011;15510;52.512;13.300;2023-11-21T07:29:26;7.00;;;3.63;;
28245;SDS011;15510;52.512;13.300;2023-11-21T07:31:52;5.63;;;3.80;;
28245;SDS011;15510;52.512;13.300;2023-11-21T07:34:19;6.23;;;2.97;;
28245;SDS011;15510;52.512;13.300;2023-11-21T07:36:46;3.20;;;2.90;;
28245;SDS011;15510;52.512;13.300;2023-11-21T07:39:12;4.07;;;2.87;;
28245;SDS011;15510;52.512;13.300;2023-11-21T07:41:40;3.27;;;2.97;;
28245;SDS011;15510;52.512;13.300;2023-11-21T07:44:13;3.53;;;2.93;;
28245;SDS011;15510;52.512;13.300;2023-11-21T07:46:39;3.93;;;2.83;;
28245;SDS011;15510;52.512;13.300;2023-11-21T07:49:05;3.60;;;2.90;;
28245;SDS011;15510;52.512;13.300;2023-11-21T07:51:31;4.30;;;3.13;;
28245;SDS011;15510;52.512;13.300;2023-11-21T07:53:57;5.90;;;3.30;;
28245;SDS011;15510;52.512;13.300;2023-11-21T07:56:23;4.07;;;3.03;;
28245;SDS011;15510;52.512;13.300;2023-11-21T07:58:48;3.77;;;3.27;;
28245;SDS011;15510;52.512;13.300;2023-11-21T08:01:15;3.23;;;2.90;;
28245;SDS011;15510;52.512;13.300;2023-11-21T08:03:41;3.87;;;2.83;;
28245;SDS011;15510;52.512;13.300;2023-11-21T08:06:07;4.00;;;2.83;;
28245;SDS011;15510;52.512;13.300;2023-11-21T08:08:33;4.57;;;3.13;;
28245;SDS011;15510;52.512;13.300;2023-11-21T08:10:59;3.10;;;2.47;;
28245;SDS011;15510;52.512;13.300;2023-11-21T08:13:26;3.47;;;2.67;;
28245;SDS011;15510;52.512;13.300;2023-11-21T08:15:57;4.17;;;3.10;;
28245;SDS011;15510;52.512;13.300;2023-11-21T08:18:30;4.40;;;3.10;;
28245;SDS011;15510;52.512;13.300;2023-11-21T08:20:57;4.70;;;3.20;;
28245;SDS011;15510;52.512;13.300;2023-11-21T08:23:22;4.00;;;3.27;;
28245;SDS011;15510;52.512;13.300;2023-11-21T08:25:50;4.27;;;3.20;;
28245;SDS011;15510;52.512;13.300;2023-11-21T08:28:19;4.63;;;3.33;;
28245;SDS011;15510;52.512;13.300;2023-11-21T08:30:47;5.13;;;4.00;;
28245;SDS011;15510;52.512;13.300;2023-11-21T08:33:13;5.67;;;3.33;;
28245;SDS011;15510;52.512;13.300;2023-11-21T08:35:39;5.57;;;3.20;;
28245;SDS011;15510;52.512;13.300;2023-11-21T08:38:05;4.73;;;3.63;;
28245;SDS011;15510;52.512;13.300;2023-11-21T08:40:31;3.83;;;3.37;;
28245;SDS011;15510;52.512;13.300;2023-11-21T08:43:08;5.63;;;3.97;;
28245;SDS011;15510;52.512;13.300;2023-11-21T08:45:37;5.30;;;4.00;;
28245;SDS011;15510;52.512;13.300;2023-11-21T08:48:03;5.20;;;4.10;;
28245;SDS011;15510;52.512;13.300;2023-11-21T08:50:29;5.27;;;3.90;;
28245;SDS011;15510;52.512;13.300;2023-11-21T08:52:55;4.83;;;3.67;;
28245;SDS011;15510;52.512;13.300;2023-11-21T08:55:21;3.60;;;3.17;;
28245;SDS011;15510;52.512;13.300;2023-11-21T08:57:47;3.67;;;3.33;;
28245;SDS011;15510;52.512;13.300;2023-11-21T09:00:13;4.80;;;3.73;;
28245;SDS011;15510;52.512;13.300;2023-11-21T09:02:42;5.13;;;3.90;;
28245;SDS011;15510;52.512;13.300;2023-11-21T09:05:12;5.00;;;3.53;;
28245;SDS011;15510;52.512;13.300;2023-11-21T09:07:41;5.20;;;3.83;;
28245;SDS011;15510;52.512;13.300;2023-11-21T09:10:08;4.20;;;3.33;;
28245;SDS011;15510;52.512;13.300;2023-11-21T09:12:34;4.27;;;3.53;;
28245;SDS011;15510;52.512;13.300;2023-11-21T09:15:02;4.80;;;3.77;;
28245;SDS011;15510;52.512;13.300;2023-11-21T09:17:30;4.53;;;3.43;;
28245;SDS011;15510;52.512;13.300;2023-11-21T09:19:56;5.60;;;3.37;;
28245;SDS011;15510;52.512;13.300;2023-11-21T09:22:22;4.93;;;2.80;;
28245;SDS011;15510;52.512;13.300;2023-11-21T09:24:50;4.77;;;3.47;;
28245;SDS011;15510;52.512;13.300;2023-11-21T09:27:16;3.57;;;2.97;;
28245;SDS011;15510;52.512;13.300;2023-11-21T09:29:43;4.03;;;3.03;;
28245;SDS011;15510;52.512;13.300;2023-11-21T09:32:08;5.23;;;2.87;;
28245;SDS011;15510;52.512;13.300;2023-11-21T09:34:39;3.73;;;3.10;;
28245;SDS011;15510;52.512;13.300;2023-11-21T09:37:05;5.20;;;3.47;;
28245;SDS011;15510;52.512;13.300;2023-11-21T09:39:32;5.07;;;3.37;;
28245;SDS011;15510;52.512;13.300;2023-11-21T09:44:58;9.00;;;3.80;;
28245;SDS011;15510;52.512;13.300;2023-11-21T09:47:43;7.33;;;3.63;;
28245;SDS011;15510;52.512;13.300;2023-11-21T09:50:09;7.73;;;4.23;;
28245;SDS011;15510;52.512;13.300;2023-11-21T09:52:39;9.57;;;4.53;;
28245;SDS011;15510;52.512;13.300;2023-11-21T09:55:18;10.47;;;4.30;;
28245;SDS011;15510;52.512;13.300;2023-11-21T09:57:47;13.83;;;5.20;;
28245;SDS011;15510;52.512;13.300;2023-11-21T10:00:14;8.77;;;4.80;;
28245;SDS011;15510;52.512;13.300;2023-11-21T10:02:43;11.90;;;5.30;;
28245;SDS011;15510;52.512;13.300;2023-11-21T10:05:09;12.17;;;6.90;;
28245;SDS011;15510;52.512;13.300;2023-11-21T10:07:39;8.43;;;4.80;;
28245;SDS011;15510;52.512;13.300;2023-11-21T10:10:09;7.67;;;4.63;;
28245;SDS011;15510;52.512;13.300;2023-11-21T10:12:35;10.07;;;4.93;;
28245;SDS011;15510;52.512;13.300;2023-11-21T10:15:08;9.17;;;4.93;;
28245;SDS011;15510;52.512;13.300;2023-11-21T10:17:41;9.77;;;5.27;;
28245;SDS011;15510;52.512;13.300;2023-11-21T10:20:13;9.13;;;5.07;;
28245;SDS011;15510;52.512;13.300;2023-11-21T10:22:45;7.90;;;4.07;;
28245;SDS011;15510;52.512;13.300;2023-11-21T10:25:12;9.30;;;5.07;;
28245;SDS011;15510;52.512;13.300;2023-11-21T10:27:41;10.43;;;5.10;;
28245;SDS011;15510;52.512;13.300;2023-11-21T10:30:39;10.53;;;5.33;;
28245;SDS011;15510;52.512;13.300;2023-11-21T10:33:07;7.50;;;4.53;;
28245;SDS011;15510;52.512;13.300;2023-11-21T10:38:16;6.17;;;3.80;;
28245;SDS011;15510;52.512;13.300;2023-11-21T10:40:43;5.80;;;3.90;;
28245;SDS011;15510;52.512;13.300;2023-11-21T10:43:26;8.83;;;4.20;;
28245;SDS011;15510;52.512;13.300;2023-11-21T10:45:58;7.97;;;3.43;;
28245;SDS011;15510;52.512;13.300;2023-11-21T10:48:27;5.77;;;3.87;;
28245;SDS011;15510;52.512;13.300;2023-11-21T10:50:56;5.80;;;3.77;;
28245;SDS011;15510;52.512;13.300;2023-11-21T10:53:23;6.77;;;3.97;;
28245;SDS011;15510;52.512;13.300;2023-11-21T10:55:49;6.40;;;4.37;;
28245;SDS011;15510;52.512;13.300;2023-11-21T10:58:17;5.87;;;3.97;;
28245;SDS011;15510;52.512;13.300;2023-11-21T11:00:43;7.77;;;4.90;;
28245;SDS011;15510;52.512;13.300;2023-11-21T11:03:12;7.83;;;5.13;;
28245;SDS011;15510;52.512;13.300;2023-11-21T11:05:39;7.53;;;4.63;;
28245;SDS011;15510;52.512;13.300;2023-11-21T11:08:16;8.77;;;4.87;;
28245;SDS011;15510;52.512;13.300;2023-11-21T11:10:51;9.13;;;4.77;;
28245;SDS011;15510;52.512;13.300;2023-11-21T11:13:17;5.43;;;3.90;;
28245;SDS011;15510;52.512;13.300;2023-11-21T11:15:47;9.70;;;4.47;;
28245;SDS011;15510;52.512;13.300;2023-11-21T11:18:13;7.30;;;3.90;;
28245;SDS011;15510;52.512;13.300;2023-11-21T11:20:40;3.27;;;2.97;;
28245;SDS011;15510;52.512;13.300;2023-11-21T11:36:57;3.97;;;3.23;;
28245;SDS011;15510;52.512;13.300;2023-11-21T11:41:57;3.43;;;2.67;;
28245;SDS011;15510;52.512;13.300;2023-11-21T11:47:26;3.17;;;2.70;;
28245;SDS011;15510;52.512;13.300;2023-11-21T11:50:01;2.93;;;2.10;;
28245;SDS011;15510;52.512;13.300;2023-11-21T11:52:51;2.23;;;2.03;;
28245;SDS011;15510;52.512;13.300;2023-11-21T11:55:20;2.30;;;2.10;;
28245;SDS011;15510;52.512;13.300;2023-11-21T11:57:48;2.50;;;2.00;;
28245;SDS011;15510;52.512;13.300;2023-11-21T12:00:21;2.93;;;2.13;;
28245;SDS011;15510;52.512;13.300;2023-11-21T12:03:00;2.23;;;2.00;;
28245;SDS011;15510;52.512;13.300;2023-11-21T12:05:33;2.73;;;2.03;;
28245;SDS011;15510;52.512;13.300;2023-11-21T12:08:04;3.27;;;2.00;;
28245;SDS011;15510;52.512;13.300;2023-11-21T12:10:32;2.77;;;2.50;;
28245;SDS011;15510;52.512;13.300;2023-11-21T12:13:02;3.37;;;2.53;;
28245;SDS011;15510;52.512;13.300;2023-11-21T12:15:44;5.40;;;2.53;;
28245;SDS011;15510;52.512;13.300;2023-11-21T12:18:13;3.13;;;2.10;;
28245;SDS011;15510;52.512;13.300;2023-11-21T12:20:39;3.53;;;2.83;;
28245;SDS011;15510;52.512;13.300;2023-11-21T12:23:06;5.00;;;2.30;;
28245;SDS011;15510;52.512;13.300;2023-11-21T12:25:34;3.33;;;2.53;;
28245;SDS011;15510;52.512;13.300;2023-11-21T12:28:02;24.67;;;13.67;;
28245;SDS011;15510;52.512;13.300;2023-11-21T12:30:29;11.63;;;7.90;;
28245;SDS011;15510;52.512;13.300;2023-11-21T12:32:57;2.90;;;2.57;;
28245;SDS011;15510;52.512;13.300;2023-11-21T12:35:27;5.63;;;2.70;;
28245;SDS011;15510;52.512;13.300;2023-11-21T12:37:59;3.10;;;2.60;;
28245;SDS011;15510;52.512;13.300;2023-11-21T12:40:28;5.37;;;2.93;;
28245;SDS011;15510;52.512;13.300;2023-11-21T12:42:55;4.77;;;2.87;;
28245;SDS011;15510;52.512;13.300;2023-11-21T12:45:23;4.13;;;2.60;;
28245;SDS011;15510;52.512;13.300;2023-11-21T12:48:06;6.77;;;5.27;;
28245;SDS011;15510;52.512;13.300;2023-11-21T12:50:39;3.80;;;2.67;;
28245;SDS011;15510;52.512;13.300;2023-11-21T12:53:05;10.90;;;3.00;;
28245;SDS011;15510;52.512;13.300;2023-11-21T12:55:38;3.13;;;2.37;;
28245;SDS011;15510;52.512;13.300;2023-11-21T12:58:05;4.03;;;2.73;;
28245;SDS011;15510;52.512;13.300;2023-11-21T13:00:37;4.60;;;2.17;;
28245;SDS011;15510;52.512;13.300;2023-11-21T13:03:07;2.90;;;2.63;;
28245;SDS011;15510;52.512;13.300;2023-11-21T13:05:36;7.77;;;3.83;;
28245;SDS011;15510;52.512;13.300;2023-11-21T13:08:09;4.33;;;2.73;;
28245;SDS011;15510;52.512;13.300;2023-11-21T13:10:39;3.30;;;2.80;;
28245;SDS011;15510;52.512;13.300;2023-11-21T13:13:14;3.20;;;2.90;;
28245;SDS011;15510;52.512;13.300;2023-11-21T13:18:21;6.10;;;3.70;;
28245;SDS011;15510;52.512;13.300;2023-11-21T13:20:54;5.77;;;4.17;;
28245;SDS011;15510;52.512;13.300;2023-11-21T13:23:23;7.67;;;3.63;;
28245;SDS011;15510;52.512;13.300;2023-11-21T13:25:49;11.70;;;7.03;;
28245;SDS011;15510;52.512;13.300;2023-11-21T13:28:19;8.63;;;5.50;;
28245;SDS011;15510;52.512;13.300;2023-11-21T13:30:52;8.57;;;4.53;;
28245;SDS011;15510;52.512;13.300;2023-11-21T13:33:18;7.00;;;4.77;;
28245;SDS011;15510;52.512;13.300;2023-11-21T13:35:47;6.60;;;4.70;;
28245;SDS011;15510;52.512;13.300;2023-11-21T13:38:17;8.43;;;5.07;;
28245;SDS011;15510;52.512;13.300;2023-11-21T13:40:49;7.90;;;5.23;;
28245;SDS011;15510;52.512;13.300;2023-11-21T13:43:23;7.87;;;5.30;;
28245;SDS011;15510;52.512;13.300;2023-11-21T13:45:51;8.50;;;5.90;;
28245;SDS011;15510;52.512;13.300;2023-11-21T13:48:33;12.93;;;6.10;;
28245;SDS011;15510;52.512;13.300;2023-11-21T13:51:14;10.80;;;6.10;;
28245;SDS011;15510;52.512;13.300;2023-11-21T13:53:43;11.33;;;6.53;;
28245;SDS011;15510;52.512;13.300;2023-11-21T13:56:17;13.43;;;7.43;;
28245;SDS011;15510;52.512;13.300;2023-11-21T13:58:51;17.33;;;8.90;;
28245;SDS011;15510;52.512;13.300;2023-11-21T14:01:17;19.43;;;9.43;;
28245;SDS011;15510;52.512;13.300;2023-11-21T14:03:52;15.80;;;8.57;;
28245;SDS011;15510;52.512;13.300;2023-11-21T14:06:27;17.57;;;9.27;;
28245;SDS011;15510;52.512;13.300;2023-11-21T14:08:59;22.37;;;10.33;;
28245;SDS011;15510;52.512;13.300;2023-11-21T14:11:30;21.30;;;11.17;;
28245;SDS011;15510;52.512;13.300;2023-11-21T14:13:56;21.03;;;11.60;;
28245;SDS011;15510;52.512;13.300;2023-11-21T14:16:24;19.77;;;10.60;;
28245;SDS011;15510;52.512;13.300;2023-11-21T14:18:50;22.70;;;10.80;;
28245;SDS011;15510;52.512;13.300;2023-11-21T14:21:26;19.53;;;10.13;;
28245;SDS011;15510;52.512;13.300;2023-11-21T14:23:52;18.57;;;9.63;;
28245;SDS011;15510;52.512;13.300;2023-11-21T14:26:20;17.37;;;9.97;;
28245;SDS011;15510;52.512;13.300;2023-11-21T14:28:50;17.07;;;10.00;;
28245;SDS011;15510;52.512;13.300;2023-11-21T14:31:16;17.57;;;10.03;;
28245;SDS011;15510;52.512;13.300;2023-11-21T14:33:43;16.87;;;9.57;;
28245;SDS011;15510;52.512;13.300;2023-11-21T14:36:16;19.30;;;9.53;;
28245;SDS011;15510;52.512;13.300;2023-11-21T14:38:42;15.43;;;9.20;;
28245;SDS011;15510;52.512;13.300;2023-11-21T14:41:10;16.27;;;9.00;;
28245;SDS011;15510;52.512;13.300;2023-11-21T14:43:37;18.60;;;10.10;;
28245;SDS011;15510;52.512;13.300;2023-11-21T14:46:04;16.33;;;10.10;;
28245;SDS011;15510;52.512;13.300;2023-11-21T14:48:37;15.40;;;9.17;;
28245;SDS011;15510;52.512;13.300;2023-11-21T14:51:15;13.80;;;8.63;;
28245;SDS011;15510;52.512;13.300;2023-11-21T14:54:14;22.13;;;12.00;;
28245;SDS011;15510;52.512;13.300;2023-11-21T14:56:46;17.37;;;10.67;;
28245;SDS011;15510;52.512;13.300;2023-11-21T14:59:12;12.93;;;9.13;;
28245;SDS011;15510;52.512;13.300;2023-11-21T15:01:41;15.93;;;9.10;;
28245;SDS011;15510;52.512;13.300;2023-11-21T15:04:23;15.73;;;9.57;;